sensor_id;sensor_type;location;lat;lon;timestamp;P1;durP1;ratioP1;P2;durP2;ratioP2
32323;SDS011;25666;44.350;9.222;2023-04-01T00:00:15;10.40;;;4.20;;
32323;SDS011;25666;44.350;9.222;2023-04-01T00:02:41;7.40;;;4.40;;
32323;SDS011;25666;44.350;9.222;2023-04-01T00:05:06;10.60;;;3.67;;
32323;SDS011;25666;44.350;9.222;2023-04-01T00:07:32;9.82;;;5.25;;
32323;SDS011;25666;44.350;9.222;2023-04-01T00:09:58;11.68;;;4.20;;
32323;SDS011;25666;44.350;9.222;2023-04-01T00:12:23;9.73;;;4.43;;
32323;SDS011;25666;44.350;9.222;2023-04-01T00:14:50;8.35;;;4.15;;
32323;SDS011;25666;44.350;9.222;2023-04-01T00:17:16;10.50;;;3.95;;
32323;SDS011;25666;44.350;9.222;2023-04-01T00:19:41;7.55;;;4.00;;
32323;SDS011;25666;44.350;9.222;2023-04-01T00:22:07;6.18;;;3.40;;
32323;SDS011;25666;44.350;9.222;2023-04-01T00:24:36;9.30;;;3.67;;
32323;SDS011;25666;44.350;9.222;2023-04-01T00:27:02;7.95;;;4.15;;
32323;SDS011;25666;44.350;9.222;2023-04-01T00:29:28;9.82;;;4.40;;
32323;SDS011;25666;44.350;9.222;2023-04-01T00:31:56;12.85;;;5.18;;
32323;SDS011;25666;44.350;9.222;2023-04-01T00:34:22;8.15;;;5.07;;
32323;SDS011;25666;44.350;9.222;2023-04-01T00:36:49;10.75;;;5.60;;
32323;SDS011;25666;44.350;9.222;2023-04-01T00:39:15;9.50;;;5.47;;
32323;SDS011;25666;44.350;9.222;2023-04-01T00:41:41;8.32;;;4.68;;
32323;SDS011;25666;44.350;9.222;2023-04-01T00:44:21;11.32;;;4.72;;
32323;SDS011;25666;44.350;9.222;2023-04-01T00:46:49;7.78;;;4.25;;
32323;SDS011;25666;44.350;9.222;2023-04-01T00:49:16;11.40;;;5.32;;
32323;SDS011;25666;44.350;9.222;2023-04-01T00:51:44;11.50;;;5.22;;
32323;SDS011;25666;44.350;9.222;2023-04-01T00:54:13;8.45;;;5.28;;
32323;SDS011;25666;44.350;9.222;2023-04-01T00:56:43;8.20;;;4.80;;
32323;SDS011;25666;44.350;9.222;2023-04-01T00:59:16;16.00;;;5.07;;
32323;SDS011;25666;44.350;9.222;2023-04-01T01:01:47;9.20;;;4.90;;
32323;SDS011;25666;44.350;9.222;2023-04-01T01:04:26;7.90;;;5.07;;
32323;SDS011;25666;44.350;9.222;2023-04-01T01:09:30;8.70;;;4.63;;
32323;SDS011;25666;44.350;9.222;2023-04-01T01:14:53;8.38;;;4.68;;
32323;SDS011;25666;44.350;9.222;2023-04-01T01:17:29;9.50;;;4.68;;
32323;SDS011;25666;44.350;9.222;2023-04-01T01:23:01;8.23;;;5.22;;
32323;SDS011;25666;44.350;9.222;2023-04-01T01:25:40;10.15;;;4.78;;
32323;SDS011;25666;44.350;9.222;2023-04-01T01:31:32;8.38;;;3.55;;
32323;SDS011;25666;44.350;9.222;2023-04-01T01:34:05;10.20;;;5.05;;
32323;SDS011;25666;44.350;9.222;2023-04-01T01:36:48;7.00;;;4.10;;
32323;SDS011;25666;44.350;9.222;2023-04-01T01:39:20;7.72;;;3.20;;
32323;SDS011;25666;44.350;9.222;2023-04-01T01:41:51;8.38;;;3.55;;
32323;SDS011;25666;44.350;9.222;2023-04-01T01:44:18;6.68;;;3.83;;
32323;SDS011;25666;44.350;9.222;2023-04-01T01:46:45;5.32;;;3.28;;
32323;SDS011;25666;44.350;9.222;2023-04-01T01:49:12;7.45;;;3.40;;
32323;SDS011;25666;44.350;9.222;2023-04-01T01:51:40;7.03;;;3.80;;
32323;SDS011;25666;44.350;9.222;2023-04-01T01:54:16;7.70;;;3.50;;
32323;SDS011;25666;44.350;9.222;2023-04-01T01:56:44;10.23;;;3.25;;
32323;SDS011;25666;44.350;9.222;2023-04-01T01:59:12;7.63;;;2.92;;
32323;SDS011;25666;44.350;9.222;2023-04-01T02:01:41;5.00;;;2.72;;
32323;SDS011;25666;44.350;9.222;2023-04-01T02:04:13;10.00;;;3.92;;
32323;SDS011;25666;44.350;9.222;2023-04-01T02:06:42;7.85;;;2.80;;
32323;SDS011;25666;44.350;9.222;2023-04-01T02:09:12;5.15;;;2.65;;
32323;SDS011;25666;44.350;9.222;2023-04-01T02:14:26;7.47;;;3.05;;
32323;SDS011;25666;44.350;9.222;2023-04-01T02:16:57;5.10;;;2.75;;
32323;SDS011;25666;44.350;9.222;2023-04-01T02:19:30;3.38;;;2.65;;
32323;SDS011;25666;44.350;9.222;2023-04-01T02:21:59;5.85;;;3.60;;
32323;SDS011;25666;44.350;9.222;2023-04-01T02:24:28;10.07;;;3.92;;
32323;SDS011;25666;44.350;9.222;2023-04-01T02:26:56;13.55;;;4.03;;
32323;SDS011;25666;44.350;9.222;2023-04-01T02:29:23;13.32;;;3.88;;
32323;SDS011;25666;44.350;9.222;2023-04-01T02:31:51;7.15;;;3.20;;
32323;SDS011;25666;44.350;9.222;2023-04-01T02:34:19;10.25;;;3.65;;
32323;SDS011;25666;44.350;9.222;2023-04-01T02:36:46;9.35;;;4.15;;
32323;SDS011;25666;44.350;9.222;2023-04-01T02:39:13;10.85;;;4.43;;
32323;SDS011;25666;44.350;9.222;2023-04-01T02:41:39;12.57;;;4.13;;
32323;SDS011;25666;44.350;9.222;2023-04-01T02:44:06;5.40;;;3.50;;
32323;SDS011;25666;44.350;9.222;2023-04-01T02:46:32;9.80;;;3.78;;
32323;SDS011;25666;44.350;9.222;2023-04-01T02:48:58;8.75;;;3.90;;
32323;SDS011;25666;44.350;9.222;2023-04-01T02:51:23;12.65;;;4.53;;
32323;SDS011;25666;44.350;9.222;2023-04-01T02:53:50;6.75;;;3.60;;
32323;SDS011;25666;44.350;9.222;2023-04-01T02:56:15;10.85;;;4.65;;
32323;SDS011;25666;44.350;9.222;2023-04-01T02:58:41;12.30;;;4.60;;
32323;SDS011;25666;44.350;9.222;2023-04-01T03:01:06;11.13;;;4.13;;
32323;SDS011;25666;44.350;9.222;2023-04-01T03:03:33;7.57;;;4.43;;
32323;SDS011;25666;44.350;9.222;2023-04-01T03:06:04;12.63;;;4.85;;
32323;SDS011;25666;44.350;9.222;2023-04-01T03:08:33;12.48;;;4.18;;
32323;SDS011;25666;44.350;9.222;2023-04-01T03:10:58;9.05;;;3.88;;
32323;SDS011;25666;44.350;9.222;2023-04-01T03:13:24;9.35;;;4.05;;
32323;SDS011;25666;44.350;9.222;2023-04-01T03:15:49;5.45;;;3.33;;
32323;SDS011;25666;44.350;9.222;2023-04-01T03:18:15;5.50;;;3.72;;
32323;SDS011;25666;44.350;9.222;2023-04-01T03:20:41;4.22;;;2.95;;
32323;SDS011;25666;44.350;9.222;2023-04-01T03:23:07;4.38;;;2.80;;
32323;SDS011;25666;44.350;9.222;2023-04-01T03:25:32;3.70;;;2.50;;
32323;SDS011;25666;44.350;9.222;2023-04-01T03:27:59;3.38;;;2.40;;
32323;SDS011;25666;44.350;9.222;2023-04-01T03:30:25;5.03;;;2.63;;
32323;SDS011;25666;44.350;9.222;2023-04-01T03:32:51;3.55;;;1.60;;
32323;SDS011;25666;44.350;9.222;2023-04-01T03:35:17;4.40;;;2.50;;
32323;SDS011;25666;44.350;9.222;2023-04-01T03:37:44;4.68;;;2.33;;
32323;SDS011;25666;44.350;9.222;2023-04-01T03:40:10;3.53;;;2.00;;
32323;SDS011;25666;44.350;9.222;2023-04-01T03:42:36;3.60;;;2.00;;
32323;SDS011;25666;44.350;9.222;2023-04-01T03:45:02;5.68;;;2.40;;
32323;SDS011;25666;44.350;9.222;2023-04-01T03:47:28;4.30;;;2.08;;
32323;SDS011;25666;44.350;9.222;2023-04-01T03:49:54;4.13;;;2.55;;
32323;SDS011;25666;44.350;9.222;2023-04-01T03:52:20;4.72;;;2.20;;
32323;SDS011;25666;44.350;9.222;2023-04-01T03:54:45;4.72;;;2.53;;
32323;SDS011;25666;44.350;9.222;2023-04-01T03:57:11;3.10;;;2.10;;
32323;SDS011;25666;44.350;9.222;2023-04-01T03:59:36;6.90;;;3.65;;
32323;SDS011;25666;44.350;9.222;2023-04-01T04:02:03;7.93;;;3.60;;
32323;SDS011;25666;44.350;9.222;2023-04-01T04:04:29;5.53;;;3.83;;
32323;SDS011;25666;44.350;9.222;2023-04-01T04:06:55;6.78;;;4.40;;
32323;SDS011;25666;44.350;9.222;2023-04-01T04:09:22;8.50;;;3.97;;
32323;SDS011;25666;44.350;9.222;2023-04-01T04:11:48;5.85;;;3.78;;
32323;SDS011;25666;44.350;9.222;2023-04-01T04:14:14;6.30;;;3.70;;
32323;SDS011;25666;44.350;9.222;2023-04-01T04:16:40;16.15;;;4.63;;
32323;SDS011;25666;44.350;9.222;2023-04-01T04:19:09;8.18;;;4.25;;
32323;SDS011;25666;44.350;9.222;2023-04-01T04:21:34;11.25;;;5.20;;
32323;SDS011;25666;44.350;9.222;2023-04-01T04:24:00;12.50;;;4.40;;
32323;SDS011;25666;44.350;9.222;2023-04-01T04:26:31;8.60;;;4.60;;
32323;SDS011;25666;44.350;9.222;2023-04-01T04:28:59;8.82;;;4.55;;
32323;SDS011;25666;44.350;9.222;2023-04-01T04:31:25;8.20;;;4.10;;
32323;SDS011;25666;44.350;9.222;2023-04-01T04:33:54;10.80;;;5.00;;
32323;SDS011;25666;44.350;9.222;2023-04-01T04:36:20;11.85;;;4.70;;
32323;SDS011;25666;44.350;9.222;2023-04-01T04:38:48;12.75;;;4.20;;
32323;SDS011;25666;44.350;9.222;2023-04-01T04:41:15;10.50;;;4.75;;
32323;SDS011;25666;44.350;9.222;2023-04-01T04:43:53;7.35;;;4.15;;
32323;SDS011;25666;44.350;9.222;2023-04-01T04:46:21;9.75;;;4.45;;
32323;SDS011;25666;44.350;9.222;2023-04-01T04:48:51;12.07;;;4.63;;
32323;SDS011;25666;44.350;9.222;2023-04-01T04:51:17;13.75;;;4.47;;
32323;SDS011;25666;44.350;9.222;2023-04-01T04:53:45;8.98;;;3.92;;
32323;SDS011;25666;44.350;9.222;2023-04-01T04:56:11;12.35;;;5.00;;
32323;SDS011;25666;44.350;9.222;2023-04-01T04:58:53;13.77;;;5.30;;
32323;SDS011;25666;44.350;9.222;2023-04-01T05:01:22;13.13;;;5.60;;
32323;SDS011;25666;44.350;9.222;2023-04-01T05:03:48;12.30;;;5.47;;
32323;SDS011;25666;44.350;9.222;2023-04-01T05:06:15;15.32;;;6.70;;
32323;SDS011;25666;44.350;9.222;2023-04-01T05:08:41;16.17;;;5.90;;
32323;SDS011;25666;44.350;9.222;2023-04-01T05:11:12;7.10;;;4.15;;
32323;SDS011;25666;44.350;9.222;2023-04-01T05:13:40;15.38;;;5.22;;
32323;SDS011;25666;44.350;9.222;2023-04-01T05:16:10;15.32;;;4.72;;
32323;SDS011;25666;44.350;9.222;2023-04-01T05:18:41;11.60;;;4.15;;
32323;SDS011;25666;44.350;9.222;2023-04-01T05:21:08;11.50;;;4.55;;
32323;SDS011;25666;44.350;9.222;2023-04-01T05:23:35;7.45;;;4.15;;
32323;SDS011;25666;44.350;9.222;2023-04-01T05:26:08;9.95;;;4.32;;
32323;SDS011;25666;44.350;9.222;2023-04-01T05:28:36;17.63;;;5.07;;
32323;SDS011;25666;44.350;9.222;2023-04-01T05:31:02;19.10;;;5.20;;
32323;SDS011;25666;44.350;9.222;2023-04-01T05:33:33;18.83;;;5.88;;
32323;SDS011;25666;44.350;9.222;2023-04-01T05:36:09;11.50;;;5.13;;
32323;SDS011;25666;44.350;9.222;2023-04-01T05:41:10;12.70;;;5.38;;
32323;SDS011;25666;44.350;9.222;2023-04-01T05:43:39;11.32;;;6.55;;
32323;SDS011;25666;44.350;9.222;2023-04-01T05:46:32;12.68;;;5.25;;
32323;SDS011;25666;44.350;9.222;2023-04-01T05:49:32;14.43;;;6.82;;
32323;SDS011;25666;44.350;9.222;2023-04-01T05:51:59;15.65;;;5.82;;
32323;SDS011;25666;44.350;9.222;2023-04-01T05:54:24;12.40;;;5.18;;
32323;SDS011;25666;44.350;9.222;2023-04-01T05:56:50;16.63;;;5.32;;
32323;SDS011;25666;44.350;9.222;2023-04-01T05:59:16;8.70;;;4.28;;
32323;SDS011;25666;44.350;9.222;2023-04-01T06:01:42;8.50;;;4.30;;
32323;SDS011;25666;44.350;9.222;2023-04-01T06:04:10;9.27;;;4.25;;
32323;SDS011;25666;44.350;9.222;2023-04-01T06:06:40;8.75;;;4.35;;
32323;SDS011;25666;44.350;9.222;2023-04-01T06:09:15;7.55;;;3.88;;
32323;SDS011;25666;44.350;9.222;2023-04-01T06:33:37;6.03;;;2.67;;
32323;SDS011;25666;44.350;9.222;2023-04-01T06:45:08;9.30;;;2.90;;
32323;SDS011;25666;44.350;9.222;2023-04-01T06:48:30;4.53;;;3.15;;
32323;SDS011;25666;44.350;9.222;2023-04-01T06:51:49;5.53;;;2.88;;
32323;SDS011;25666;44.350;9.222;2023-04-01T07:01:10;4.38;;;2.28;;
32323;SDS011;25666;44.350;9.222;2023-04-01T07:03:50;3.42;;;2.08;;
32323;SDS011;25666;44.350;9.222;2023-04-01T07:06:26;11.98;;;2.70;;
32323;SDS011;25666;44.350;9.222;2023-04-01T07:09:26;7.15;;;2.13;;
32323;SDS011;25666;44.350;9.222;2023-04-01T07:12:21;5.30;;;2.33;;
32323;SDS011;25666;44.350;9.222;2023-04-01T07:15:33;6.55;;;2.63;;
32323;SDS011;25666;44.350;9.222;2023-04-01T07:18:07;5.63;;;2.17;;
32323;SDS011;25666;44.350;9.222;2023-04-01T07:20:41;5.80;;;2.70;;
32323;SDS011;25666;44.350;9.222;2023-04-01T07:23:10;8.07;;;2.92;;
32323;SDS011;25666;44.350;9.222;2023-04-01T07:26:21;9.60;;;2.92;;
32323;SDS011;25666;44.350;9.222;2023-04-01T07:29:11;7.35;;;2.63;;
32323;SDS011;25666;44.350;9.222;2023-04-01T07:34:23;11.13;;;3.47;;
32323;SDS011;25666;44.350;9.222;2023-04-01T07:39:39;14.52;;;3.67;;
32323;SDS011;25666;44.350;9.222;2023-04-01T07:44:57;10.00;;;3.75;;
32323;SDS011;25666;44.350;9.222;2023-04-01T07:47:28;10.68;;;3.83;;
32323;SDS011;25666;44.350;9.222;2023-04-01T07:50:02;10.15;;;3.80;;
32323;SDS011;25666;44.350;9.222;2023-04-01T07:52:45;17.05;;;3.55;;
32323;SDS011;25666;44.350;9.222;2023-04-01T08:06:59;12.73;;;4.85;;
32323;SDS011;25666;44.350;9.222;2023-04-01T08:24:14;20.95;;;6.93;;
32323;SDS011;25666;44.350;9.222;2023-04-01T08:26:49;13.10;;;4.25;;
32323;SDS011;25666;44.350;9.222;2023-04-01T08:29:20;13.63;;;4.50;;
32323;SDS011;25666;44.350;9.222;2023-04-01T08:34:30;14.65;;;5.13;;
32323;SDS011;25666;44.350;9.222;2023-04-01T08:37:11;17.45;;;4.43;;
32323;SDS011;25666;44.350;9.222;2023-04-01T08:39:44;9.00;;;3.97;;
32323;SDS011;25666;44.350;9.222;2023-04-01T08:45:06;9.27;;;4.05;;
32323;SDS011;25666;44.350;9.222;2023-04-01T09:02:56;7.50;;;2.58;;
32323;SDS011;25666;44.350;9.222;2023-04-01T09:19:50;10.45;;;3.10;;
32323;SDS011;25666;44.350;9.222;2023-04-01T09:37:14;11.75;;;4.22;;
32323;SDS011;25666;44.350;9.222;2023-04-01T09:42:29;10.98;;;4.07;;
32323;SDS011;25666;44.350;9.222;2023-04-01T09:59:02;11.90;;;4.63;;
32323;SDS011;25666;44.350;9.222;2023-04-01T10:07:13;9.00;;;3.55;;
32323;SDS011;25666;44.350;9.222;2023-04-01T10:20:47;10.20;;;4.63;;
32323;SDS011;25666;44.350;9.222;2023-04-01T10:38:02;10.23;;;3.63;;
32323;SDS011;25666;44.350;9.222;2023-04-01T10:43:34;8.75;;;3.40;;
32323;SDS011;25666;44.350;9.222;2023-04-01T10:49:32;7.80;;;2.95;;
32323;SDS011;25666;44.350;9.222;2023-04-01T11:12:48;6.85;;;3.10;;
32323;SDS011;25666;44.350;9.222;2023-04-01T11:44:57;8.73;;;2.72;;
32323;SDS011;25666;44.350;9.222;2023-04-01T12:03:49;2.70;;;1.77;;
32323;SDS011;25666;44.350;9.222;2023-04-01T12:06:44;7.03;;;2.15;;
32323;SDS011;25666;44.350;9.222;2023-04-01T12:09:37;10.60;;;2.92;;
32323;SDS011;25666;44.350;9.222;2023-04-01T12:14:59;6.22;;;2.65;;
32323;SDS011;25666;44.350;9.222;2023-04-01T12:17:49;8.02;;;2.65;;
32323;SDS011;25666;44.350;9.222;2023-04-01T12:31:31;11.88;;;3.22;;
32323;SDS011;25666;44.350;9.222;2023-04-01T12:34:13;5.75;;;2.22;;
32323;SDS011;25666;44.350;9.222;2023-04-01T12:39:50;6.43;;;3.08;;
32323;SDS011;25666;44.350;9.222;2023-04-01T12:42:33;8.90;;;2.63;;
32323;SDS011;25666;44.350;9.222;2023-04-01T12:45:19;9.10;;;2.80;;
32323;SDS011;25666;44.350;9.222;2023-04-01T12:50:30;7.93;;;2.78;;
32323;SDS011;25666;44.350;9.222;2023-04-01T12:56:29;4.00;;;2.47;;
32323;SDS011;25666;44.350;9.222;2023-04-01T13:02:13;14.32;;;3.55;;
32323;SDS011;25666;44.350;9.222;2023-04-01T13:07:47;20.65;;;3.67;;
32323;SDS011;25666;44.350;9.222;2023-04-01T13:13:30;14.50;;;4.10;;
32323;SDS011;25666;44.350;9.222;2023-04-01T13:22:02;17.67;;;4.18;;
32323;SDS011;25666;44.350;9.222;2023-04-01T13:27:56;34.65;;;5.32;;
32323;SDS011;25666;44.350;9.222;2023-04-01T13:30:33;16.20;;;3.63;;
32323;SDS011;25666;44.350;9.222;2023-04-01T13:35:49;21.67;;;3.88;;
32323;SDS011;25666;44.350;9.222;2023-04-01T13:41:25;19.95;;;4.28;;
32323;SDS011;25666;44.350;9.222;2023-04-01T13:44:14;12.25;;;3.95;;
32323;SDS011;25666;44.350;9.222;2023-04-01T13:46:48;17.80;;;3.67;;
32323;SDS011;25666;44.350;9.222;2023-04-01T14:26:54;19.45;;;4.25;;
32323;SDS011;25666;44.350;9.222;2023-04-01T14:45:59;7.57;;;3.05;;
32323;SDS011;25666;44.350;9.222;2023-04-01T14:48:31;17.80;;;3.80;;
32323;SDS011;25666;44.350;9.222;2023-04-01T14:51:16;21.98;;;5.20;;
32323;SDS011;25666;44.350;9.222;2023-04-01T14:56:51;10.43;;;3.90;;
32323;SDS011;25666;44.350;9.222;2023-04-01T15:24:24;16.50;;;3.53;;
32323;SDS011;25666;44.350;9.222;2023-04-01T15:26:59;15.52;;;3.72;;
32323;SDS011;25666;44.350;9.222;2023-04-01T15:35:28;25.05;;;4.95;;
32323;SDS011;25666;44.350;9.222;2023-04-01T15:41:16;15.65;;;2.90;;
32323;SDS011;25666;44.350;9.222;2023-04-01T15:43:49;9.73;;;3.05;;
32323;SDS011;25666;44.350;9.222;2023-04-01T16:12:15;24.83;;;3.80;;
32323;SDS011;25666;44.350;9.222;2023-04-01T16:23:29;16.13;;;3.83;;
32323;SDS011;25666;44.350;9.222;2023-04-01T16:26:12;37.55;;;5.68;;
32323;SDS011;25666;44.350;9.222;2023-04-01T16:28:55;17.15;;;4.70;;
32323;SDS011;25666;44.350;9.222;2023-04-01T16:31:45;24.73;;;4.32;;
32323;SDS011;25666;44.350;9.222;2023-04-01T16:37:05;21.85;;;3.95;;
32323;SDS011;25666;44.350;9.222;2023-04-01T16:47:55;23.55;;;5.25;;
32323;SDS011;25666;44.350;9.222;2023-04-01T16:55:55;25.33;;;3.70;;
32323;SDS011;25666;44.350;9.222;2023-04-01T16:58:34;19.30;;;3.50;;
32323;SDS011;25666;44.350;9.222;2023-04-01T17:01:13;14.52;;;5.25;;
32323;SDS011;25666;44.350;9.222;2023-04-01T17:03:45;26.40;;;5.13;;
32323;SDS011;25666;44.350;9.222;2023-04-01T17:09:06;28.23;;;4.18;;
32323;SDS011;25666;44.350;9.222;2023-04-01T17:14:37;19.85;;;5.43;;
32323;SDS011;25666;44.350;9.222;2023-04-01T17:23:12;27.80;;;5.80;;
32323;SDS011;25666;44.350;9.222;2023-04-01T17:28:16;28.67;;;3.95;;
32323;SDS011;25666;44.350;9.222;2023-04-01T17:54:59;26.75;;;6.10;;
32323;SDS011;25666;44.350;9.222;2023-04-01T17:58:12;28.10;;;5.90;;
32323;SDS011;25666;44.350;9.222;2023-04-01T18:00:30;29.13;;;5.07;;
32323;SDS011;25666;44.350;9.222;2023-04-01T18:06:19;17.15;;;5.30;;
32323;SDS011;25666;44.350;9.222;2023-04-01T18:25:37;34.38;;;8.82;;
32323;SDS011;25666;44.350;9.222;2023-04-01T18:30:40;35.53;;;8.23;;
32323;SDS011;25666;44.350;9.222;2023-04-01T18:33:29;37.88;;;6.60;;
32323;SDS011;25666;44.350;9.222;2023-04-01T18:38:49;20.45;;;5.82;;
32323;SDS011;25666;44.350;9.222;2023-04-01T18:41:25;25.92;;;5.82;;
32323;SDS011;25666;44.350;9.222;2023-04-01T18:49:52;27.42;;;6.25;;
32323;SDS011;25666;44.350;9.222;2023-04-01T18:52:24;20.45;;;6.30;;
32323;SDS011;25666;44.350;9.222;2023-04-01T18:57:55;17.00;;;5.05;;
32323;SDS011;25666;44.350;9.222;2023-04-01T19:00:41;23.05;;;6.03;;
32323;SDS011;25666;44.350;9.222;2023-04-01T19:05:59;21.77;;;5.45;;
32323;SDS011;25666;44.350;9.222;2023-04-01T19:08:34;27.58;;;4.97;;
32323;SDS011;25666;44.350;9.222;2023-04-01T19:19:41;21.45;;;5.35;;
32323;SDS011;25666;44.350;9.222;2023-04-01T19:36:50;29.83;;;5.80;;
32323;SDS011;25666;44.350;9.222;2023-04-01T19:48:03;22.17;;;3.90;;
32323;SDS011;25666;44.350;9.222;2023-04-01T19:50:35;20.10;;;4.00;;
32323;SDS011;25666;44.350;9.222;2023-04-01T19:59:10;19.17;;;4.63;;
32323;SDS011;25666;44.350;9.222;2023-04-01T20:04:08;27.15;;;4.72;;
32323;SDS011;25666;44.350;9.222;2023-04-01T20:22:38;26.35;;;4.53;;
32323;SDS011;25666;44.350;9.222;2023-04-01T20:25:43;22.33;;;4.25;;
32323;SDS011;25666;44.350;9.222;2023-04-01T20:53:29;43.53;;;6.88;;
32323;SDS011;25666;44.350;9.222;2023-04-01T20:56:29;35.22;;;4.53;;
32323;SDS011;25666;44.350;9.222;2023-04-01T21:19:43;35.92;;;6.32;;
32323;SDS011;25666;44.350;9.222;2023-04-01T21:22:05;29.30;;;5.78;;
32323;SDS011;25666;44.350;9.222;2023-04-01T21:27:47;18.10;;;5.30;;
32323;SDS011;25666;44.350;9.222;2023-04-01T21:36:55;18.63;;;4.28;;
32323;SDS011;25666;44.350;9.222;2023-04-01T21:47:26;28.58;;;4.18;;
32323;SDS011;25666;44.350;9.222;2023-04-01T21:53:09;35.17;;;4.60;;
32323;SDS011;25666;44.350;9.222;2023-04-01T22:07:18;22.63;;;4.57;;
32323;SDS011;25666;44.350;9.222;2023-04-01T22:15:13;26.52;;;5.30;;
32323;SDS011;25666;44.350;9.222;2023-04-01T22:17:47;26.27;;;4.95;;
32323;SDS011;25666;44.350;9.222;2023-04-01T22:25:42;21.30;;;5.38;;
32323;SDS011;25666;44.350;9.222;2023-04-01T22:28:44;28.70;;;6.53;;
32323;SDS011;25666;44.350;9.222;2023-04-01T22:31:40;29.83;;;4.65;;
32323;SDS011;25666;44.350;9.222;2023-04-01T22:35:32;19.80;;;5.32;;
32323;SDS011;25666;44.350;9.222;2023-04-01T22:40:32;19.60;;;4.18;;
32323;SDS011;25666;44.350;9.222;2023-04-01T22:43:15;20.05;;;4.85;;
32323;SDS011;25666;44.350;9.222;2023-04-01T22:48:39;26.95;;;5.72;;
32323;SDS011;25666;44.350;9.222;2023-04-01T22:56:26;31.05;;;6.38;;
32323;SDS011;25666;44.350;9.222;2023-04-01T23:01:44;17.60;;;3.95;;
32323;SDS011;25666;44.350;9.222;2023-04-01T23:04:16;16.02;;;3.50;;
32323;SDS011;25666;44.350;9.222;2023-04-01T23:06:49;27.52;;;4.07;;
32323;SDS011;25666;44.350;9.222;2023-04-01T23:09:23;15.52;;;2.97;;
32323;SDS011;25666;44.350;9.222;2023-04-01T23:14:39;18.35;;;3.50;;
32323;SDS011;25666;44.350;9.222;2023-04-01T23:17:34;17.45;;;4.05;;
32323;SDS011;25666;44.350;9.222;2023-04-01T23:20:14;18.63;;;3.70;;
32323;SDS011;25666;44.350;9.222;2023-04-01T23:22:58;19.45;;;2.90;;
32323;SDS011;25666;44.350;9.222;2023-04-01T23:35:50;16.30;;;3.13;;
32323;SDS011;25666;44.350;9.222;2023-04-01T23:38:17;22.50;;;3.92;;
32323;SDS011;25666;44.350;9.222;2023-04-01T23:40:47;14.90;;;3.42;;
32323;SDS011;25666;44.350;9.222;2023-04-01T23:43:23;18.90;;;3.63;;
32323;SDS011;25666;44.350;9.222;2023-04-01T23:45:52;24.65;;;4.65;;
32323;SDS011;25666;44.350;9.222;2023-04-01T23:48:21;25.05;;;4.18;;
32323;SDS011;25666;44.350;9.222;2023-04-01T23:50:57;27.80;;;3.95;;
32323;SDS011;25666;44.350;9.222;2023-04-01T23:53:24;14.55;;;3.88;;
32323;SDS011;25666;44.350;9.222;2023-04-01T23:55:53;16.00;;;3.80;;
32323;SDS011;25666;44.350;9.222;2023-04-01T23:58:26;22.77;;;3.88;;
